Time;durP1;ratioP1;P1;durP2;ratioP2;P2;SDS_P1;SDS_P2;PMS_P1;PMS_P2;Temp;Humidity;BMP_temperature;BMP_pressure;BME280_temperature;BME280_humidity;BME280_pressure;Samples;Min_cycle;Max_cycle;Signal;HPM_P1;HPM_P2
2022/04/25 00:01:18;;;;;;;7.93;6.00;;;11.10;71.40;;;;;;5077705;28;20227;-85
2022/04/25 00:03:44;;;;;;;12.88;6.60;;;11.10;71.70;;;;;;5089650;28;20662;-85
2022/04/25 00:06:11;;;;;;;8.20;6.07;;;11.00;71.80;;;;;;5073456;28;20200;-85
2022/04/25 00:08:37;;;;;;;13.73;7.13;;;11.10;71.90;;;;;;5089759;28;20187;-85
2022/04/25 00:11:04;;;;;;;14.23;6.43;;;11.00;72.50;;;;;;5082686;28;20326;-85
2022/04/25 00:13:30;;;;;;;12.88;7.72;;;11.00;72.40;;;;;;5085478;28;20173;-85
2022/04/25 00:15:56;;;;;;;10.90;5.67;;;11.00;73.00;;;;;;5092487;28;20194;-85
2022/04/25 00:18:22;;;;;;;10.60;5.93;;;11.00;72.30;;;;;;5086466;28;20443;-85
2022/04/25 00:20:50;;;;;;;11.00;7.07;;;11.00;72.50;;;;;;5097903;28;20496;-85
2022/04/25 00:23:16;;;;;;;10.45;6.88;;;10.80;72.90;;;;;;5102985;28;20179;-85
2022/04/25 00:25:42;;;;;;;10.53;6.33;;;10.80;73.10;;;;;;5090381;28;20321;-85
2022/04/25 00:28:08;;;;;;;6.77;5.90;;;10.80;73.00;;;;;;5094967;28;20936;-84
2022/04/25 00:30:34;;;;;;;7.47;5.80;;;10.80;73.20;;;;;;5082052;28;20612;-85
2022/04/25 00:33:01;;;;;;;12.88;5.88;;;10.80;73.30;;;;;;5083268;28;20176;-85
2022/04/25 00:35:28;;;;;;;12.20;6.40;;;10.70;74.20;;;;;;5100384;28;20187;-85
2022/04/25 00:37:54;;;;;;;13.95;6.82;;;10.70;74.10;;;;;;5098016;28;20189;-85
2022/04/25 00:40:21;;;;;;;11.82;5.95;;;10.70;74.10;;;;;;5087762;28;20297;-85
2022/04/25 00:42:48;;;;;;;13.93;6.93;;;10.60;74.40;;;;;;5097726;28;20191;-85
2022/04/25 00:45:14;;;;;;;10.63;6.80;;;10.60;74.40;;;;;;5082136;28;20229;-84
2022/04/25 00:47:44;;;;;;;12.00;7.00;;;10.50;75.10;;;;;;5097621;28;20178;-85
2022/04/25 00:50:11;;;;;;;12.25;7.03;;;10.60;74.80;;;;;;5098028;28;20192;-85
2022/04/25 00:52:37;;;;;;;11.68;8.27;;;10.70;74.30;;;;;;5083412;28;20180;-85
2022/04/25 00:55:07;;;;;;;14.13;7.55;;;10.70;74.60;;;;;;5085041;28;20551;-85
2022/04/25 00:57:33;;;;;;;9.68;7.38;;;10.60;74.90;;;;;;5091256;28;20179;-85
2022/04/25 01:00:00;;;;;;;10.25;7.57;;;10.60;75.60;;;;;;5058731;28;20211;-85
2022/04/25 01:02:27;;;;;;;10.18;6.93;;;10.60;76.00;;;;;;5058944;28;20319;-85
2022/04/25 01:04:54;;;;;;;9.77;6.88;;;10.60;76.10;;;;;;5098303;28;20255;-85
2022/04/25 01:07:21;;;;;;;11.27;8.35;;;10.60;77.00;;;;;;5112413;28;20243;-85
2022/04/25 01:09:46;;;;;;;13.00;8.68;;;10.60;76.70;;;;;;5096523;28;20563;-85
2022/04/25 01:12:12;;;;;;;15.33;7.83;;;10.50;77.30;;;;;;5075364;28;20195;-85
2022/04/25 01:14:39;;;;;;;11.00;7.55;;;10.50;77.50;;;;;;5096751;28;20425;-85
2022/04/25 01:17:07;;;;;;;14.52;7.38;;;10.60;76.70;;;;;;5074859;28;20194;-85
2022/04/25 01:19:33;;;;;;;12.82;8.43;;;10.50;77.10;;;;;;5077985;28;20623;-85
2022/04/25 01:22:06;;;;;;;13.52;8.02;;;10.50;77.40;;;;;;5078216;28;20179;-85
2022/04/25 01:27:17;;;;;;;16.05;9.48;;;10.40;77.60;;;;;;5096310;28;20214;-85
2022/04/25 01:29:46;;;;;;;11.65;8.02;;;10.30;78.00;;;;;;5083444;28;20196;-85
2022/04/25 01:32:13;;;;;;;15.43;9.30;;;10.40;77.60;;;;;;5076321;28;20242;-85
2022/04/25 01:34:39;;;;;;;13.77;8.30;;;10.30;77.70;;;;;;5062282;28;20667;-85
2022/04/25 01:37:09;;;;;;;15.65;8.57;;;10.30;78.00;;;;;;5096776;28;20179;-85
2022/04/25 01:39:40;;;;;;;11.35;9.10;;;10.30;77.80;;;;;;5066523;28;20193;-85
2022/04/25 01:42:07;;;;;;;15.02;8.70;;;10.30;77.80;;;;;;5080519;28;20199;-85
2022/04/25 01:44:34;;;;;;;18.02;9.80;;;10.30;77.70;;;;;;5091411;28;20543;-84
2022/04/25 01:47:00;;;;;;;14.90;8.45;;;10.20;77.90;;;;;;5077770;28;20560;-85
2022/04/25 01:49:26;;;;;;;15.13;9.60;;;10.20;78.70;;;;;;5076062;28;20203;-85
2022/04/25 01:51:52;;;;;;;15.20;8.87;;;10.20;79.00;;;;;;5076195;28;20181;-85
2022/04/25 01:54:25;;;;;;;12.43;8.50;;;10.20;78.60;;;;;;5076988;28;20411;-85
2022/04/25 01:56:51;;;;;;;16.88;9.13;;;10.10;78.70;;;;;;5072377;28;20426;-85
2022/04/25 01:59:17;;;;;;;17.90;9.65;;;10.10;79.10;;;;;;5069236;28;20196;-85
2022/04/25 02:01:43;;;;;;;20.23;10.87;;;10.10;79.10;;;;;;5096035;28;20274;-85
2022/04/25 02:04:09;;;;;;;15.00;9.70;;;10.00;79.60;;;;;;5068433;28;20450;-85
2022/04/25 02:06:35;;;;;;;17.50;9.43;;;10.00;79.50;;;;;;5076943;28;20218;-85
2022/04/25 02:09:01;;;;;;;14.57;9.50;;;10.00;79.40;;;;;;5094865;28;20254;-85
2022/04/25 02:11:27;;;;;;;16.40;10.80;;;9.90;79.70;;;;;;5069888;28;20200;-85
2022/04/25 02:13:52;;;;;;;17.85;11.30;;;9.90;80.10;;;;;;5094866;28;20414;-84
2022/04/25 02:16:19;;;;;;;18.50;10.90;;;9.90;80.20;;;;;;5088184;28;20183;-85
2022/04/25 02:18:45;;;;;;;20.92;10.65;;;9.90;80.60;;;;;;5071661;28;20176;-85
2022/04/25 02:21:11;;;;;;;14.90;10.27;;;9.80;80.30;;;;;;5095283;28;20215;-84
2022/04/25 02:23:38;;;;;;;18.27;10.97;;;9.90;80.30;;;;;;5073909;28;20184;-84
2022/04/25 02:26:08;;;;;;;22.38;10.52;;;9.90;80.20;;;;;;5082312;28;20449;-84
2022/04/25 02:28:34;;;;;;;16.60;10.70;;;9.90;80.10;;;;;;5076377;28;20180;-85
2022/04/25 02:31:00;;;;;;;19.83;11.13;;;9.80;80.50;;;;;;5076720;28;20203;-85
2022/04/25 02:33:27;;;;;;;17.95;10.35;;;9.80;80.70;;;;;;5076637;28;20271;-84
2022/04/25 02:35:54;;;;;;;13.90;10.38;;;9.80;80.60;;;;;;5095261;28;20180;-85
2022/04/25 02:38:20;;;;;;;19.55;10.77;;;9.80;80.90;;;;;;5095756;28;20260;-85
2022/04/25 02:40:46;;;;;;;17.42;11.45;;;9.80;81.10;;;;;;5077975;28;20204;-84
2022/04/25 02:43:12;;;;;;;16.13;12.00;;;9.80;80.70;;;;;;5098585;28;20180;-85
2022/04/25 02:45:38;;;;;;;15.83;10.37;;;9.80;80.70;;;;;;5100938;28;20219;-85
2022/04/25 02:48:04;;;;;;;15.40;10.73;;;9.80;80.90;;;;;;5082952;28;20172;-86
2022/04/25 02:50:29;;;;;;;17.00;10.40;;;9.70;80.80;;;;;;5060475;28;20444;-85
2022/04/25 02:52:55;;;;;;;16.60;10.80;;;9.70;80.80;;;;;;5094694;28;20180;-85
2022/04/25 02:55:21;;;;;;;18.43;11.80;;;9.70;81.30;;;;;;5072060;28;20241;-85
2022/04/25 02:57:47;;;;;;;16.10;10.93;;;9.70;81.20;;;;;;5075533;28;20176;-85
2022/04/25 03:00:13;;;;;;;21.60;10.47;;;9.70;81.20;;;;;;5076459;28;20438;-85
2022/04/25 03:02:39;;;;;;;18.88;11.95;;;9.70;80.90;;;;;;5076309;28;20179;-84
2022/04/25 03:05:27;;;;;;;19.03;12.10;;;9.70;80.60;;;;;;5076593;28;20200;-84
2022/04/25 03:07:53;;;;;;;22.90;12.40;;;9.70;80.90;;;;;;5079355;28;20188;-85
2022/04/25 03:10:19;;;;;;;17.50;12.65;;;9.60;81.40;;;;;;5078419;28;20212;-85
2022/04/25 03:12:44;;;;;;;18.70;12.77;;;9.60;81.70;;;;;;5077994;28;20241;-87
2022/04/25 03:15:10;;;;;;;23.07;12.93;;;9.50;81.70;;;;;;5078434;28;20757;-86
2022/04/25 03:17:38;;;;;;;23.33;11.90;;;9.50;82.00;;;;;;5073226;28;20214;-85
2022/04/25 03:20:04;;;;;;;17.75;12.07;;;9.50;81.80;;;;;;5088578;28;20461;-86
2022/04/25 03:22:30;;;;;;;20.23;13.23;;;9.60;80.70;;;;;;5101215;28;20210;-85
2022/04/25 03:24:56;;;;;;;18.33;13.40;;;9.60;80.70;;;;;;5096740;28;20167;-85
2022/04/25 03:27:22;;;;;;;20.43;12.90;;;9.60;80.60;;;;;;5078193;28;20422;-85
2022/04/25 03:29:50;;;;;;;18.07;12.03;;;9.60;80.50;;;;;;5076464;28;20563;-86
2022/04/25 03:32:16;;;;;;;17.20;12.30;;;9.70;80.00;;;;;;5080303;28;20178;-86
2022/04/25 03:34:42;;;;;;;16.90;12.13;;;9.70;80.50;;;;;;5075643;28;20178;-85
2022/04/25 03:37:11;;;;;;;20.17;12.80;;;9.60;80.80;;;;;;5073846;28;20173;-86
2022/04/25 03:39:37;;;;;;;20.95;13.80;;;9.60;80.40;;;;;;5072495;28;20972;-86
2022/04/25 03:42:03;;;;;;;21.10;12.93;;;9.60;80.80;;;;;;5078637;28;20189;-85
2022/04/25 03:44:29;;;;;;;21.92;13.80;;;9.70;80.30;;;;;;5102506;28;20171;-85
2022/04/25 03:46:55;;;;;;;20.13;13.60;;;9.70;80.40;;;;;;5102677;28;20675;-85
2022/04/25 03:49:21;;;;;;;22.73;14.40;;;9.60;81.50;;;;;;5088076;28;20206;-85
2022/04/25 03:51:47;;;;;;;23.23;14.15;;;9.60;81.00;;;;;;5068668;28;20198;-85
2022/04/25 03:57:09;;;;;;;23.60;13.90;;;9.60;80.70;;;;;;5097445;28;20262;-85
2022/04/25 03:57:11;;;;;;;19.58;14.02;;;9.70;80.10;;;;;;5094497;28;20172;-85
2022/04/25 03:59:36;;;;;;;24.40;12.90;;;9.60;80.00;;;;;;5079619;28;20581;-85
2022/04/25 04:02:12;;;;;;;23.50;14.57;;;9.50;80.70;;;;;;5061217;28;20660;-84
2022/04/25 04:04:38;;;;;;;24.45;14.32;;;9.50;81.00;;;;;;5098695;28;20425;-86
2022/04/25 04:07:04;;;;;;;19.40;12.57;;;9.60;80.10;;;;;;5093654;28;20539;-85
2022/04/25 04:09:45;;;;;;;23.73;15.00;;;9.50;80.50;;;;;;5082846;28;20298;-84
2022/04/25 04:12:11;;;;;;;21.90;14.98;;;9.50;80.70;;;;;;5088441;28;20182;-85
2022/04/25 04:14:37;;;;;;;39.83;15.27;;;9.40;81.10;;;;;;5086186;28;20210;-85
2022/04/25 04:17:07;;;;;;;19.98;15.63;;;9.50;80.50;;;;;;5120129;28;20171;-86
2022/04/25 04:19:36;;;;;;;27.27;14.13;;;9.50;80.60;;;;;;5117377;28;20411;-86
2022/04/25 04:22:03;;;;;;;17.77;12.75;;;9.50;80.70;;;;;;5082715;28;20655;-86
2022/04/25 04:24:31;;;;;;;18.00;14.57;;;9.50;80.70;;;;;;5076747;28;20181;-85
2022/04/25 04:27:04;;;;;;;21.10;14.27;;;9.50;81.30;;;;;;5071811;28;20254;-86
2022/04/25 04:29:31;;;;;;;22.65;15.38;;;9.50;80.70;;;;;;5076117;28;20200;-86
2022/04/25 04:32:02;;;;;;;28.55;14.95;;;9.50;80.80;;;;;;5062454;28;20381;-85
2022/04/25 04:34:29;;;;;;;22.98;15.85;;;9.40;80.80;;;;;;5074896;28;20630;-87
2022/04/25 04:36:55;;;;;;;19.23;13.82;;;9.40;81.10;;;;;;5077726;28;20181;-86
2022/04/25 04:39:21;;;;;;;24.35;14.20;;;9.50;81.10;;;;;;5078726;28;20332;-86
2022/04/25 04:41:47;;;;;;;20.40;14.10;;;9.50;80.20;;;;;;5093706;28;20232;-85
2022/04/25 04:44:13;;;;;;;21.50;13.40;;;9.50;80.10;;;;;;5088482;28;20180;-85
2022/04/25 04:46:40;;;;;;;21.75;13.90;;;9.50;79.60;;;;;;5091865;28;20220;-85
2022/04/25 04:49:12;;;;;;;19.42;13.95;;;9.60;79.30;;;;;;5082298;28;20181;-85
2022/04/25 04:51:38;;;;;;;21.73;13.43;;;9.50;79.50;;;;;;5074219;28;20198;-86
2022/04/25 04:54:04;;;;;;;21.70;14.90;;;9.60;80.10;;;;;;5077937;28;20184;-85
2022/04/25 04:56:30;;;;;;;23.27;15.47;;;9.50;80.00;;;;;;5078979;28;20176;-85
2022/04/25 04:58:56;;;;;;;19.70;15.10;;;9.60;80.80;;;;;;5057821;28;20212;-85
2022/04/25 05:01:22;;;;;;;20.85;14.85;;;9.50;80.50;;;;;;5096104;28;20429;-85
2022/04/25 05:03:48;;;;;;;21.27;14.20;;;9.60;80.60;;;;;;5096690;28;20203;-85
2022/04/25 05:06:14;;;;;;;17.33;13.43;;;9.60;80.80;;;;;;5089005;28;20580;-85
2022/04/25 05:08:40;;;;;;;25.30;13.82;;;9.70;80.20;;;;;;5047430;28;20241;-85
2022/04/25 05:11:08;;;;;;;20.52;12.93;;;9.70;79.70;;;;;;5084784;28;20270;-85
2022/04/25 05:13:34;;;;;;;20.60;14.32;;;9.80;79.10;;;;;;5082242;28;20655;-85
2022/04/25 05:16:00;;;;;;;18.53;13.10;;;9.80;79.20;;;;;;5111049;28;20384;-85
2022/04/25 05:18:25;;;;;;;22.33;13.33;;;9.70;79.60;;;;;;5084732;28;20181;-85
2022/04/25 05:20:52;;;;;;;22.40;13.63;;;9.80;78.90;;;;;;5077071;28;20613;-85
2022/04/25 05:23:18;;;;;;;20.05;12.57;;;9.90;79.10;;;;;;5095763;28;20429;-85
2022/04/25 05:25:43;;;;;;;22.63;13.53;;;9.90;78.80;;;;;;5097249;28;20196;-85
2022/04/25 05:28:09;;;;;;;25.03;13.80;;;9.90;78.40;;;;;;5092017;28;20260;-86
2022/04/25 05:30:35;;;;;;;26.60;15.60;;;9.90;78.40;;;;;;5081167;28;20447;-85
2022/04/25 05:33:02;;;;;;;20.40;13.30;;;9.90;78.80;;;;;;5094274;28;20458;-85
2022/04/25 05:35:31;;;;;;;21.13;13.30;;;10.00;78.30;;;;;;5107041;28;20176;-85
2022/04/25 05:37:57;;;;;;;23.00;12.75;;;10.10;77.90;;;;;;5080815;28;20170;-85
2022/04/25 05:40:25;;;;;;;27.23;14.30;;;10.10;77.50;;;;;;5082243;28;20238;-85
2022/04/25 05:42:52;;;;;;;16.83;12.68;;;10.10;77.40;;;;;;5077975;28;20777;-86
2022/04/25 05:45:24;;;;;;;21.02;12.77;;;10.30;76.60;;;;;;5079090;28;20222;-85
2022/04/25 05:47:51;;;;;;;20.00;11.77;;;10.30;76.80;;;;;;5104658;28;20373;-86
2022/04/25 05:53:03;;;;;;;24.45;12.23;;;10.60;75.40;;;;;;5110233;28;20240;-86
2022/04/25 05:55:29;;;;;;;17.27;11.45;;;10.80;74.80;;;;;;5061303;28;20192;-86
2022/04/25 05:57:56;;;;;;;29.87;12.73;;;10.90;74.30;;;;;;5078295;28;20179;-86
2022/04/25 06:00:22;;;;;;;21.67;11.93;;;10.80;74.70;;;;;;5078237;28;20467;-86
2022/04/25 06:02:48;;;;;;;17.48;11.95;;;10.80;74.40;;;;;;5077937;28;20184;-86
2022/04/25 06:05:15;;;;;;;19.10;12.03;;;10.70;74.60;;;;;;5085082;28;20205;-86
2022/04/25 06:07:43;;;;;;;16.98;11.27;;;10.90;74.40;;;;;;5078058;28;20736;-85
2022/04/25 06:10:10;;;;;;;20.45;11.35;;;10.80;74.80;;;;;;5079105;28;20352;-86
2022/04/25 06:13:02;;;;;;;18.77;12.15;;;10.80;74.90;;;;;;5080957;28;20248;-86
2022/04/25 06:15:31;;;;;;;20.77;11.70;;;10.90;74.80;;;;;;5083223;28;20191;-87
2022/04/25 06:17:56;;;;;;;22.17;11.63;;;11.00;73.90;;;;;;5103543;28;20164;-87
2022/04/25 06:20:23;;;;;;;16.43;11.87;;;10.90;74.20;;;;;;5083619;28;20431;-85
2022/04/25 06:22:53;;;;;;;17.85;11.13;;;11.10;73.40;;;;;;5068253;28;20264;-86
2022/04/25 06:25:19;;;;;;;17.30;11.20;;;10.90;74.40;;;;;;5075597;28;20676;-86
2022/04/25 06:27:45;;;;;;;24.13;12.40;;;10.80;74.90;;;;;;5077367;28;20222;-86
2022/04/25 06:30:11;;;;;;;17.53;11.50;;;10.80;75.30;;;;;;5078624;28;20215;-85
2022/04/25 06:32:37;;;;;;;24.50;13.43;;;11.00;74.90;;;;;;5078998;28;20393;-85
2022/04/25 06:35:03;;;;;;;18.63;11.20;;;11.10;75.20;;;;;;5077944;28;20259;-85
2022/04/25 06:37:29;;;;;;;18.15;11.68;;;11.40;73.00;;;;;;5087649;28;20185;-86
2022/04/25 06:39:57;;;;;;;19.63;10.90;;;11.40;72.80;;;;;;5077339;28;20192;-85
2022/04/25 06:42:23;;;;;;;19.38;10.82;;;11.60;72.30;;;;;;5060088;28;20184;-86
2022/04/25 06:44:49;;;;;;;16.80;11.50;;;11.60;72.40;;;;;;5077227;28;20187;-85
2022/04/25 06:47:15;;;;;;;15.73;11.67;;;11.60;71.50;;;;;;5078149;28;20172;-85
2022/04/25 06:49:40;;;;;;;16.30;11.33;;;11.50;72.40;;;;;;5071625;28;20686;-85
2022/04/25 06:52:08;;;;;;;19.23;12.27;;;11.70;72.60;;;;;;5088753;28;20183;-84
2022/04/25 06:54:35;;;;;;;17.05;12.00;;;11.70;71.30;;;;;;5098916;28;20570;-86
2022/04/25 06:57:02;;;;;;;17.73;10.90;;;11.50;71.30;;;;;;5076964;28;20186;-85
2022/04/25 06:59:28;;;;;;;19.35;12.30;;;11.40;71.70;;;;;;5078773;28;20918;-85
2022/04/25 07:01:55;;;;;;;19.05;11.40;;;11.50;71.40;;;;;;5092355;28;20179;-86
2022/04/25 07:04:21;;;;;;;18.25;12.30;;;11.60;71.10;;;;;;5091574;28;20199;-84
2022/04/25 07:06:47;;;;;;;15.75;11.77;;;11.60;71.50;;;;;;5076596;28;20326;-85
2022/04/25 07:09:14;;;;;;;21.00;13.25;;;11.80;70.70;;;;;;5081852;28;20207;-85
2022/04/25 07:11:44;;;;;;;22.20;13.23;;;11.90;70.70;;;;;;5089222;28;20262;-85
2022/04/25 07:14:18;;;;;;;16.13;11.43;;;12.00;70.40;;;;;;5089134;28;20189;-85
2022/04/25 07:16:45;;;;;;;20.98;12.20;;;12.10;69.90;;;;;;5080981;28;20192;-85
2022/04/25 07:19:12;;;;;;;18.25;13.40;;;12.30;69.30;;;;;;5105634;28;20184;-86
2022/04/25 07:29:51;;;;;;;17.20;14.00;;;12.60;67.60;;;;;;5096307;28;20214;-85
2022/04/25 07:32:18;;;;;;;19.70;12.85;;;12.50;67.40;;;;;;5079493;28;20179;-87
2022/04/25 07:34:48;;;;;;;20.30;13.98;;;12.50;67.10;;;;;;5078572;28;20236;-86
2022/04/25 07:37:15;;;;;;;17.92;12.90;;;12.40;67.20;;;;;;5077374;28;20164;-86
2022/04/25 07:39:42;;;;;;;20.08;13.57;;;12.50;67.40;;;;;;5079221;28;20698;-86
2022/04/25 07:42:08;;;;;;;28.15;16.65;;;12.50;67.20;;;;;;5046681;28;20251;-86
2022/04/25 07:44:34;;;;;;;19.40;13.70;;;12.40;68.00;;;;;;5058325;28;20632;-85
2022/04/25 07:46:59;;;;;;;26.97;16.47;;;12.10;68.90;;;;;;5079411;28;20256;-86
2022/04/25 07:49:26;;;;;;;19.30;15.53;;;12.00;69.50;;;;;;5077392;28;20529;-86
2022/04/25 07:51:54;;;;;;;21.00;14.52;;;12.10;70.10;;;;;;5075693;28;20268;-86
2022/04/25 07:54:19;;;;;;;23.25;15.15;;;12.40;68.50;;;;;;5078669;28;20206;-86
2022/04/25 07:56:45;;;;;;;23.30;15.93;;;12.50;67.50;;;;;;5072312;28;20175;-86
2022/04/25 07:59:11;;;;;;;26.27;16.10;;;12.60;67.00;;;;;;5075757;28;20500;-86
2022/04/25 08:01:38;;;;;;;20.80;15.85;;;12.60;66.70;;;;;;5076308;28;20593;-86
2022/04/25 08:04:04;;;;;;;20.05;14.55;;;12.70;66.60;;;;;;5076038;28;20187;-86
2022/04/25 08:06:30;;;;;;;17.50;14.55;;;13.00;65.50;;;;;;5095032;28;20717;-86
2022/04/25 08:08:57;;;;;;;22.60;16.20;;;13.20;64.30;;;;;;5077471;28;20176;-86
2022/04/25 08:11:23;;;;;;;20.17;15.40;;;13.20;64.00;;;;;;5077242;28;20195;-86
2022/04/25 08:19:20;;;;;;;21.30;15.57;;;13.50;62.70;;;;;;5097764;28;20276;-85
2022/04/25 08:21:46;;;;;;;17.88;14.30;;;13.50;62.20;;;;;;5082477;28;20187;-85
2022/04/25 08:24:13;;;;;;;22.58;15.45;;;13.50;62.00;;;;;;5077427;28;20207;-86
2022/04/25 08:26:40;;;;;;;20.77;15.25;;;13.30;62.00;;;;;;5076657;28;20192;-86
2022/04/25 08:29:06;;;;;;;22.42;15.32;;;13.20;63.00;;;;;;5077480;28;20180;-86
2022/04/25 08:31:33;;;;;;;16.55;14.35;;;13.10;63.30;;;;;;5078922;28;20171;-86
2022/04/25 08:34:01;;;;;;;20.23;15.40;;;13.10;63.40;;;;;;5071370;28;20497;-85
2022/04/25 08:36:27;;;;;;;24.85;15.95;;;13.10;63.00;;;;;;5076277;28;20184;-86
2022/04/25 08:38:53;;;;;;;19.63;14.00;;;13.00;63.10;;;;;;5091069;28;20232;-86
2022/04/25 08:41:24;;;;;;;17.73;13.60;;;13.00;62.80;;;;;;5057418;28;20570;-86
2022/04/25 08:43:55;;;;;;;21.73;14.10;;;13.00;62.80;;;;;;5072546;28;20263;-85
2022/04/25 08:46:22;;;;;;;19.70;14.13;;;13.10;62.40;;;;;;5092561;28;20230;-85
2022/04/25 08:48:52;;;;;;;19.50;13.98;;;13.00;62.50;;;;;;5075739;28;20260;-86
2022/04/25 08:51:20;;;;;;;19.35;13.23;;;13.00;62.60;;;;;;5076264;28;20640;-86
2022/04/25 08:53:46;;;;;;;16.85;12.20;;;13.10;61.80;;;;;;5072791;28;20198;-84
2022/04/25 08:56:15;;;;;;;20.63;15.18;;;12.90;62.00;;;;;;5096677;28;20240;-85
2022/04/25 08:58:41;;;;;;;18.65;13.75;;;13.00;62.40;;;;;;5080450;28;20176;-84
2022/04/25 09:01:12;;;;;;;23.75;15.70;;;13.30;61.60;;;;;;5079488;28;20195;-86
2022/04/25 09:03:38;;;;;;;15.23;13.30;;;13.50;60.90;;;;;;5072701;28;20179;-86
2022/04/25 09:06:06;;;;;;;16.43;13.93;;;13.50;59.60;;;;;;5080945;28;20221;-85
2022/04/25 09:08:32;;;;;;;15.68;13.20;;;13.70;59.70;;;;;;5080491;28;20508;-85
2022/04/25 09:13:46;;;;;;;17.52;13.57;;;13.60;59.20;;;;;;5037072;28;20182;-86
2022/04/25 09:16:13;;;;;;;17.15;13.23;;;13.70;59.10;;;;;;5078902;28;20646;-86
2022/04/25 09:18:39;;;;;;;14.48;12.98;;;13.90;57.90;;;;;;5078877;28;20344;-85
2022/04/25 09:21:05;;;;;;;16.07;12.40;;;13.90;57.90;;;;;;5079859;28;20241;-86
2022/04/25 09:23:31;;;;;;;18.98;13.38;;;13.90;58.40;;;;;;5094559;28;20197;-84
2022/04/25 09:26:24;;;;;;;14.53;11.70;;;14.00;57.90;;;;;;5085417;28;20188;-85
2022/04/25 09:28:55;;;;;;;16.10;11.90;;;13.90;57.30;;;;;;5069029;28;20411;-85
2022/04/25 09:31:22;;;;;;;13.57;10.68;;;13.60;58.20;;;;;;5077536;28;20261;-85
2022/04/25 09:33:48;;;;;;;15.63;11.25;;;13.60;57.90;;;;;;5082169;28;20325;-85
2022/04/25 09:36:15;;;;;;;15.27;10.23;;;13.80;57.90;;;;;;5079101;28;20267;-85
2022/04/25 09:38:42;;;;;;;12.85;9.95;;;14.10;56.50;;;;;;5080317;28;20180;-85
2022/04/25 09:41:11;;;;;;;11.13;9.68;;;14.30;56.00;;;;;;5080725;28;20287;-85
2022/04/25 09:43:41;;;;;;;17.58;10.88;;;14.30;55.90;;;;;;5084683;28;20182;-83
2022/04/25 09:46:09;;;;;;;13.05;10.93;;;14.40;55.20;;;;;;5085133;28;20212;-85
2022/04/25 09:48:37;;;;;;;15.00;10.48;;;14.60;55.10;;;;;;5073472;28;20187;-85
2022/04/25 09:51:06;;;;;;;14.75;12.73;;;14.70;55.10;;;;;;5096952;28;20196;-85
2022/04/25 09:53:44;;;;;;;13.45;12.05;;;14.60;55.70;;;;;;5074934;28;20176;-85
2022/04/25 09:56:12;;;;;;;16.05;12.48;;;14.40;56.30;;;;;;5080392;28;20187;-85
2022/04/25 09:58:40;;;;;;;14.52;12.07;;;14.00;57.50;;;;;;5079365;28;20178;-85
2022/04/25 10:01:14;;;;;;;17.80;11.95;;;13.90;58.30;;;;;;5097686;28;20207;-85
2022/04/25 10:03:41;;;;;;;14.00;12.50;;;13.90;58.70;;;;;;5066924;28;20194;-85
2022/04/25 10:06:08;;;;;;;18.20;14.02;;;13.60;59.90;;;;;;5077679;28;20195;-84
2022/04/25 10:08:35;;;;;;;17.00;13.27;;;13.60;62.60;;;;;;5053356;28;20172;-85
2022/04/25 10:11:09;;;;;;;26.27;15.90;;;13.70;63.50;;;;;;5079567;28;20248;-85
2022/04/25 10:13:35;;;;;;;16.17;13.23;;;13.60;63.50;;;;;;5058085;28;20172;-85
2022/04/25 10:16:02;;;;;;;19.33;14.00;;;13.60;63.10;;;;;;5077802;28;20535;-85
2022/04/25 10:18:31;;;;;;;19.17;14.85;;;13.90;62.50;;;;;;5071678;28;20968;-85
2022/04/25 10:20:59;;;;;;;19.80;14.80;;;14.00;61.40;;;;;;5089544;28;20201;-85
2022/04/25 10:23:25;;;;;;;20.20;14.48;;;14.10;60.80;;;;;;5099066;28;20206;-85
2022/04/25 10:25:56;;;;;;;15.10;13.30;;;14.20;60.20;;;;;;5079492;28;20199;-85
2022/04/25 10:28:59;;;;;;;16.95;13.68;;;14.30;59.80;;;;;;5080868;28;20187;-83
2022/04/25 10:31:31;;;;;;;15.70;13.90;;;14.20;60.20;;;;;;5066371;28;20194;-85
2022/04/25 10:33:59;;;;;;;19.08;13.23;;;14.20;59.90;;;;;;5081864;28;20168;-85
2022/04/25 10:36:37;;;;;;;18.30;14.15;;;14.10;59.70;;;;;;5082146;28;20191;-85
2022/04/25 10:39:45;;;;;;;13.93;12.15;;;14.30;58.90;;;;;;5094333;28;20180;-85
2022/04/25 10:44:56;;;;;;;15.15;12.52;;;14.50;57.70;;;;;;5094941;28;20198;-85
2022/04/25 10:47:26;;;;;;;18.90;13.43;;;14.90;56.60;;;;;;5096472;28;20263;-85
2022/04/25 10:49:56;;;;;;;18.85;11.52;;;14.90;56.10;;;;;;5077378;28;20195;-85
2022/04/25 10:55:14;;;;;;;21.40;13.77;;;15.10;55.00;;;;;;5098535;28;20199;-85
2022/04/25 10:58:01;;;;;;;15.18;12.73;;;14.90;55.30;;;;;;5096163;28;20184;-85
2022/04/25 11:00:36;;;;;;;14.20;12.80;;;14.60;56.30;;;;;;5081473;28;20203;-85
2022/04/25 11:03:08;;;;;;;17.17;13.85;;;14.60;56.60;;;;;;5097675;28;20182;-84
2022/04/25 11:06:00;;;;;;;14.73;13.20;;;14.50;57.00;;;;;;5078547;28;20750;-85
2022/04/25 11:08:36;;;;;;;16.35;13.90;;;14.40;57.20;;;;;;5080748;28;20183;-85
2022/04/25 11:11:04;;;;;;;15.07;13.25;;;14.10;58.40;;;;;;5081768;28;20238;-82
2022/04/25 11:13:56;;;;;;;18.63;14.32;;;14.40;57.90;;;;;;5080507;28;20319;-82
2022/04/25 11:16:24;;;;;;;15.18;13.35;;;14.50;58.10;;;;;;5070845;28;20176;-82
2022/04/25 11:19:15;;;;;;;19.02;13.73;;;14.30;58.30;;;;;;5072128;28;20207;-83
2022/04/25 11:21:46;;;;;;;17.80;14.68;;;14.20;58.80;;;;;;5070900;28;20419;-88
2022/04/25 11:24:38;;;;;;;16.80;15.10;;;14.40;58.30;;;;;;5072072;28;20179;-83
2022/04/25 11:27:09;;;;;;;20.13;14.70;;;14.20;58.80;;;;;;5081314;28;20282;-83
2022/04/25 11:29:43;;;;;;;20.73;15.93;;;14.20;58.90;;;;;;5077127;28;20220;-83
2022/04/25 11:32:28;;;;;;;18.08;14.38;;;14.20;59.30;;;;;;5065506;28;20175;-83
2022/04/25 11:34:59;;;;;;;16.88;14.18;;;14.20;59.10;;;;;;5080108;28;20172;-83
2022/04/25 11:37:26;;;;;;;16.58;14.60;;;14.30;58.80;;;;;;5080551;28;20555;-82
2022/04/25 11:40:04;;;;;;;15.70;13.07;;;14.50;57.50;;;;;;5085563;28;20195;-85
2022/04/25 11:42:32;;;;;;;15.98;12.98;;;14.70;56.40;;;;;;5100807;28;20187;-84
2022/04/25 11:44:59;;;;;;;19.60;14.32;;;14.80;55.90;;;;;;5081484;28;20640;-85
2022/04/25 11:47:25;;;;;;;15.02;13.10;;;14.70;55.50;;;;;;5083021;28;20206;-84
2022/04/25 11:50:19;;;;;;;19.30;13.77;;;14.60;56.40;;;;;;5080642;28;20194;-84
2022/04/25 11:52:51;;;;;;;21.00;14.10;;;14.50;57.00;;;;;;5073016;28;20210;-84
2022/04/25 11:55:18;;;;;;;18.33;14.45;;;14.50;57.00;;;;;;5086833;28;20184;-84
2022/04/25 11:57:45;;;;;;;14.13;12.70;;;14.70;57.20;;;;;;5090771;28;20183;-83
2022/04/25 12:00:17;;;;;;;18.23;12.80;;;14.60;57.50;;;;;;5102683;28;20565;-80
2022/04/25 12:02:44;;;;;;;14.73;10.63;;;14.70;56.80;;;;;;5104845;28;20206;-80
2022/04/25 12:05:11;;;;;;;12.20;9.73;;;14.90;56.20;;;;;;5106320;28;20176;-81
2022/04/25 12:07:38;;;;;;;10.05;8.82;;;14.90;56.10;;;;;;5110574;28;20192;-81
2022/04/25 12:15:42;;;;;;;9.18;7.85;;;14.80;55.70;;;;;;5114383;28;20160;-82
2022/04/25 12:18:45;;;;;;;7.63;6.90;;;14.80;55.70;;;;;;5084260;28;20175;-83
2022/04/25 12:21:16;;;;;;;9.02;8.05;;;15.10;55.20;;;;;;5110785;28;20286;-82
2022/04/25 12:23:51;;;;;;;8.10;7.30;;;15.20;54.70;;;;;;5088073;28;20183;-81
2022/04/25 12:26:27;;;;;;;7.65;6.53;;;15.10;54.90;;;;;;5102970;28;20187;-82
2022/04/25 12:29:00;;;;;;;8.18;7.35;;;14.60;55.00;;;;;;5083131;28;20164;-81
2022/04/25 12:31:44;;;;;;;8.75;6.78;;;14.30;56.40;;;;;;5087939;28;20183;-82
2022/04/25 12:34:39;;;;;;;7.53;6.25;;;14.50;57.30;;;;;;5106625;28;20178;-81
2022/04/25 12:37:06;;;;;;;7.78;7.00;;;14.90;57.00;;;;;;5107521;28;20178;-82
2022/04/25 12:39:32;;;;;;;6.55;5.85;;;15.10;56.00;;;;;;5108869;28;20199;-82
2022/04/25 12:42:01;;;;;;;7.73;5.90;;;15.20;55.10;;;;;;5090257;28;20184;-82
2022/04/25 12:44:28;;;;;;;5.18;4.68;;;15.40;54.50;;;;;;5090744;28;20243;-84
2022/04/25 12:50:06;;;;;;;8.57;6.40;;;15.30;53.80;;;;;;5109692;28;20195;-81
2022/04/25 12:52:49;;;;;;;6.57;5.97;;;15.20;53.80;;;;;;5075096;28;20176;-81
2022/04/25 12:55:42;;;;;;;10.45;8.25;;;15.30;52.90;;;;;;5091479;28;20190;-81
2022/04/25 12:58:08;;;;;;;10.63;8.18;;;15.40;54.20;;;;;;5091551;28;20176;-81
2022/04/25 13:01:00;;;;;;;10.33;8.60;;;15.40;54.90;;;;;;5091644;28;20199;-82
2022/04/25 13:03:26;;;;;;;9.73;8.63;;;15.50;54.90;;;;;;5089797;28;20176;-82
2022/04/25 13:05:53;;;;;;;12.68;8.95;;;15.10;55.60;;;;;;5090037;28;20195;-84
2022/04/25 13:08:20;;;;;;;11.88;9.27;;;15.00;56.20;;;;;;5095653;28;20207;-81
2022/04/25 13:10:45;;;;;;;11.95;10.75;;;15.30;55.80;;;;;;5094720;28;20207;-83
2022/04/25 13:13:11;;;;;;;14.37;10.50;;;14.70;56.90;;;;;;5089270;28;20202;-81
2022/04/25 13:15:38;;;;;;;11.23;10.13;;;14.20;59.00;;;;;;5090678;28;20417;-82
2022/04/25 13:18:05;;;;;;;12.55;9.85;;;14.50;58.60;;;;;;5090612;28;20184;-82